Data for 09/29/2017

Time Sea-Level Adjusted Pressure Absolute Pressure Temperature Relative Humidity Dew Point   
(mb) (inHg) (mb) (inHg) (C) (F) (%) (C) (F)
00:05 1023 30.21 852 25.16 12.4 54.2 41 -0.6 31
00:10 1023 30.21 852 25.16 12.2 54 41 -0.5 31.1
00:15 1023 30.21 852 25.16 12.3 54.1 41 -0.5 31
00:20 1023 30.21 852 25.16 12.4 54.3 41 -0.4 31.2
00:25 1023 30.21 852 25.16 12.3 54.2 41 -0.5 31.1
00:30 1023 30.21 852 25.16 12.4 54.3 41 -0.4 31.3
00:35 1023 30.21 852 25.16 12.4 54.3 41 -0.4 31.3
00:40 1023 30.21 852 25.16 12.4 54.3 41 -0.4 31.3
00:45 1023 30.21 852 25.16 12.4 54.3 42 -0.2 31.7
00:50 1023 30.21 852 25.16 12.4 54.2 42 -0.2 31.6
00:55 1023 30.21 852 25.16 12.4 54.3 41 -0.3 31.4
01:00 1023 30.21 852 25.16 12.5 54.5 41 -0.4 31.3
01:05 1022 30.18 852 25.16 12.6 54.7 41 -0.2 31.6
01:10 1023 30.21 852 25.16 12.6 54.6 41 -0.2 31.7
01:15 1023 30.21 852 25.16 12.5 54.4 41 -0.2 31.6
01:20 1022 30.18 852 25.16 12.4 54.3 42 -0.2 31.6
01:25 1022 30.18 852 25.16 12.3 54.2 41 -0.3 31.4
01:30 1022 30.18 852 25.16 12.4 54.3 41 -0.4 31.3
01:35 1022 30.18 852 25.16 12.3 54.1 42 -0.1 31.7
01:40 1022 30.18 852 25.16 12 53.5 43 -0.2 31.6
01:45 1022 30.18 852 25.16 11.7 53.1 43 -0.3 31.5
01:50 1022 30.18 852 25.16 11.7 53.1 43 -0.3 31.5
01:55 1022 30.18 852 25.16 11.7 53 43 -0.4 31.3
02:00 1022 30.18 852 25.16 11.7 53 43 -0.4 31.3
02:05 1022 30.18 852 25.16 11.5 52.7 44 -0.4 31.2
02:10 1022 30.18 852 25.16 11.3 52.4 44 -0.5 31.1
02:15 1022 30.18 852 25.16 11.1 52.1 44 -0.5 31
02:20 1022 30.18 852 25.16 10.9 51.6 45 -0.4 31.3
02:25 1023 30.21 852 25.16 10.7 51.3 46 -0.4 31.3
02:30 1023 30.21 852 25.16 10.5 50.9 47 -0.3 31.4
02:35 1023 30.21 852 25.16 10.1 50.1 49 -0.1 31.8
02:40 1023 30.21 852 25.16 9.8 49.7 50 -0.2 31.7
02:45 1023 30.21 852 25.16 9.7 49.4 50 -0.1 31.8
02:50 1023 30.21 852 25.16 9.5 49 51 -0.1 31.8
02:55 1023 30.21 852 25.16 9.3 48.8 51 -0.1 31.8
03:00 1023 30.21 852 25.16 9.2 48.6 52 -0.2 31.7
03:05 1023 30.21 852 25.16 9.2 48.6 52 -0.2 31.7
03:10 1022 30.18 852 25.16 9.1 48.4 52 -0.1 31.8
03:15 1022 30.18 852 25.16 8.9 48 53 -0.1 31.9
03:20 1022 30.18 852 25.16 8.6 47.4 54 -0.3 31.5
03:25 1022 30.18 852 25.16 8.6 47.5 54 -0.2 31.7
03:30 1022 30.18 852 25.16 8.7 47.7 53 -0.3 31.5
03:35 1022 30.18 852 25.16 8.8 47.8 54 -0.1 31.9
03:40 1022 30.18 852 25.16 8.7 47.7 53 -0.2 31.6
03:45 1022 30.18 852 25.16 8.7 47.7 53 -0.2 31.7
03:50 1022 30.18 851 25.13 8.8 47.8 53 -0.2 31.7
03:55 1022 30.18 851 25.13 8.7 47.6 53 -0.3 31.5
04:00 1022 30.18 851 25.13 8.6 47.5 54 -0.2 31.7
04:05 1022 30.18 851 25.13 8.3 47 56 0.1 32.1
04:10 1022 30.18 851 25.13 7.8 46.1 57 -0 31.9
04:15 1022 30.18 851 25.13 7.7 45.8 57 -0.2 31.7
04:20 1022 30.18 851 25.13 7.8 46 56 -0.3 31.4
04:25 1022 30.18 851 25.13 7.9 46.3 56 -0.3 31.4
04:30 1022 30.18 851 25.13 8 46.4 56 -0.2 31.6
04:35 1022 30.18 851 25.13 7.9 46.1 57 -0.2 31.6
04:40 1022 30.18 851 25.13 7.7 45.8 57 -0.2 31.7
04:45 1022 30.18 851 25.13 7.5 45.4 58 -0.2 31.6
04:50 1022 30.18 851 25.13 7.5 45.4 58 -0.3 31.5
04:55 1022 30.18 851 25.13 7.3 45.2 58 -0.3 31.5
05:00 1022 30.18 851 25.13 7.4 45.3 57 -0.5 31.2
05:05 1022 30.18 851 25.13 7.7 45.9 56 -0.4 31.3
05:10 1022 30.18 851 25.13 7.7 45.9 57 -0.3 31.5
05:15 1022 30.18 851 25.13 7.6 45.6 57 -0.3 31.4
05:20 1022 30.18 851 25.13 7.6 45.7 56 -0.6 31
05:25 1022 30.18 851 25.13 7.8 46 56 -0.4 31.4
05:30 1022 30.18 851 25.13 7.6 45.6 57 -0.3 31.4
05:35 1022 30.18 851 25.13 7.3 45.2 58 -0.3 31.4
05:40 1022 30.18 851 25.13 7.1 44.8 59 -0.3 31.4
05:45 1022 30.18 851 25.13 6.9 44.4 60 -0.3 31.4
05:50 1022 30.18 851 25.13 6.3 43.4 63 -0.1 31.7
05:55 1022 30.18 851 25.13 5.7 42.2 65 -0.5 31.1
06:00 1022 30.18 851 25.13 5.2 41.4 64 -1 30.2
06:05 1022 30.18 851 25.13 5.7 42.3 58 -1.8 28.8
06:10 1022 30.18 851 25.13 6.2 43.1 60 -0.9 30.4
06:15 1022 30.18 851 25.13 6.2 43.1 58 -1.6 29.2
06:20 1022 30.18 851 25.13 6.7 44.1 58 -1 30.2
06:25 1022 30.18 851 25.13 6.7 44 57 -1.3 29.7
06:30 1022 30.18 851 25.13 7.1 44.8 57 -0.8 30.6
06:35 1022 30.18 851 25.13 6.6 44 59 -0.8 30.6
06:40 1022 30.18 851 25.13 6.1 42.9 61 -0.9 30.4
06:45 1022 30.18 851 25.13 5.7 42.2 62 -1 30.3
06:50 1022 30.18 851 25.13 5.2 41.4 64 -1.1 30.1
06:55 1022 30.18 851 25.13 5.3 41.5 61 -1.5 29.2
07:00 1022 30.18 851 25.13 5.7 42.2 63 -0.8 30.5
07:05 1022 30.18 851 25.13 5.5 41.8 63 -0.9 30.3
07:10 1022 30.18 851 25.13 5.2 41.3 65 -0.9 30.4
07:15 1022 30.18 851 25.13 5.2 41.3 63 -1.3 29.7
07:20 1022 30.18 851 25.13 5.5 41.8 62 -1.1 30
07:25 1022 30.18 851 25.13 5.4 41.8 63 -1.1 29.9
07:30 1022 30.18 851 25.13 5.2 41.3 64 -1.1 30
07:35 1022 30.18 851 25.13 5.3 41.6 62 -1.3 29.7
07:40 1022 30.18 851 25.13 5.7 42.3 62 -1.1 30.1
07:45 1022 30.18 851 25.13 5.7 42.2 62 -1 30.1
07:50 1022 30.18 851 25.13 6.1 42.9 59 -1.2 29.8
07:55 1022 30.18 851 25.13 6.4 43.5 59 -1 30.1
08:00 1022 30.18 851 25.13 6.7 44 57 -1.2 29.9
08:05 1022 30.18 851 25.13 7 44.6 57 -0.9 30.4
08:10 1022 30.18 851 25.13 6.7 44.1 57 -1.1 30
08:15 1022 30.18 851 25.13 6.8 44.3 56 -1.3 29.6
08:20 1022 30.18 851 25.13 7 44.6 57 -0.9 30.4
08:25 1022 30.18 851 25.13 7 44.6 57 -0.8 30.6
08:30 1022 30.18 851 25.13 7.1 44.8 57 -0.7 30.8
08:35 1022 30.18 851 25.13 7.3 45.2 56 -0.9 30.4
08:40 1022 30.18 851 25.13 7.8 46 54 -1.1 30.1
08:45 1022 30.18 851 25.13 8.2 46.8 54 -0.5 31.1
08:50 1022 30.18 851 25.13 8.5 47.3 53 -0.6 31
08:55 1022 30.18 851 25.13 8.8 47.9 52 -0.3 31.4
09:00 1022 30.18 851 25.13 9.2 48.5 51 -0.3 31.4
09:05 1021 30.15 851 25.13 9.4 48.9 51 -0.3 31.5
09:10 1021 30.15 851 25.13 9.5 49.1 51 -0.1 31.8
09:15 1021 30.15 851 25.13 9.7 49.4 51 -0 32
09:20 1022 30.18 851 25.13 9.8 49.6 51 0 32.1
09:25 1021 30.15 851 25.13 9.8 49.7 50 -0.1 31.9
09:30 1021 30.15 851 25.13 10.3 50.5 48 -0.1 31.8
09:35 1021 30.15 851 25.13 11.2 52.1 44 -0.5 31.2
09:40 1021 30.15 851 25.13 11.5 52.6 45 -0.1 31.8
09:45 1021 30.15 851 25.13 11.9 53.4 43 -0.4 31.3
09:50 1021 30.15 850 25.1 12.3 54.1 40 -1 30.3
09:55 1021 30.15 850 25.1 13.1 55.6 39 -0.6 30.9
10:00 1021 30.15 850 25.1 13.8 56.8 37 -0.5 31
10:05 1021 30.15 850 25.1 13.5 56.3 37 -0.9 30.3
10:10 1021 30.15 850 25.1 14 57.3 35 -1 30.1
10:15 1021 30.15 850 25.1 14.8 58.6 34 -1 30.3
10:20 1021 30.15 850 25.1 14.7 58.4 35 -0.7 30.8
10:25 1021 30.15 850 25.1 14.4 57.9 35 -0.8 30.6
10:30 1021 30.15 850 25.1 14.4 57.9 36 -0.3 31.4
10:35 1021 30.15 850 25.1 14.7 58.4 36 -0.1 31.8
10:40 1021 30.15 850 25.1 15.3 59.5 35 -0.1 31.7
10:45 1021 30.15 850 25.1 15.5 59.8 34 -0.4 31.3
10:50 1021 30.15 850 25.1 15.3 59.5 34 -0.4 31.2
10:55 1021 30.15 850 25.1 14.9 58.9 34 -0.5 31.1
11:00 1021 30.15 850 25.1 15.2 59.3 35 -0.2 31.7
11:05 1021 30.15 850 25.1 14.4 57.8 36 -0.6 30.9
11:10 1021 30.15 850 25.1 14.9 58.7 33 -1.4 29.6
11:15 1021 30.15 850 25.1 15.7 60.3 31 -1.4 29.5
11:20 1020 30.12 850 25.1 15.9 60.7 31 -0.9 30.4
11:25 1020 30.12 850 25.1 15.9 60.6 32 -0.9 30.4
11:30 1020 30.12 850 25.1 16.2 61.1 31 -1 30.1
11:35 1020 30.12 849 25.07 15.9 60.6 31 -1 30.2
11:40 1020 30.12 849 25.07 15.9 60.6 32 -0.9 30.5
11:45 1020 30.12 849 25.07 16.1 61 30 -1.2 29.8
11:50 1020 30.12 849 25.07 16.9 62.4 31 -0.4 31.3
11:55 1020 30.12 849 25.07 16.8 62.2 31 -0.5 31
12:00 1020 30.12 849 25.07 16.8 62.2 31 -0.3 31.4
12:05 1020 30.12 849 25.07 17.2 63 30 -0.2 31.6
12:10 1020 30.12 849 25.07 17.3 63.1 31 -0.1 31.8
12:15 1020 30.12 849 25.07 17.7 63.8 29 -0.3 31.4
12:20 1020 30.12 849 25.07 17.8 64.1 30 0 32.1
12:25 1020 30.12 849 25.07 17.6 63.6 30 -0.2 31.7
12:30 1020 30.12 849 25.07 18.1 64.6 28 -0.3 31.4
12:35 1020 30.12 849 25.07 18.1 64.5 29 -0.1 31.8
12:40 1019 30.09 849 25.07 18.2 64.8 29 0 32.1
12:45 1019 30.09 849 25.07 18.7 65.7 27 -0.3 31.5
12:50 1019 30.09 849 25.07 19 66.3 27 -0.3 31.4
12:55 1019 30.09 848 25.04 19.2 66.5 27 -0.1 31.9
13:00 1019 30.09 848 25.04 18.7 65.7 29 0.5 32.9
13:05 1019 30.09 848 25.04 18.6 65.4 30 0.8 33.5
13:10 1019 30.09 848 25.04 18.2 64.8 30 0.6 33.1
13:15 1019 30.09 848 25.04 19.1 66.3 29 0.9 33.6
13:20 1019 30.09 848 25.04 19 66.1 28 0.3 32.5
13:25 1019 30.09 848 25.04 19 66.1 30 1 33.7
13:30 1019 30.09 848 25.04 19.5 67 27 -0 32
13:35 1019 30.09 848 25.04 19.8 67.6 27 0.4 32.8
13:40 1019 30.09 848 25.04 19.8 67.6 26 -0 32
13:45 1019 30.09 848 25.04 19.4 66.8 26 -0.4 31.4
13:50 1019 30.09 848 25.04 19.7 67.5 26 -0.2 31.7
13:55 1018 30.06 848 25.04 19.1 66.4 27 -0.2 31.7
14:00 1018 30.06 848 25.04 19.6 67.2 23 -1.7 28.9
14:05 1018 30.06 848 25.04 20.3 68.5 25 0.1 32.1
14:10 1018 30.06 847 25.01 20.2 68.3 24 -0.7 30.7
14:15 1018 30.06 847 25.01 20.7 69.2 25 -0 31.9
14:20 1018 30.06 847 25.01 21.2 70.2 22 -1.3 29.7
14:25 1018 30.06 847 25.01 21.8 71.2 20 -1.7 28.9
14:30 1018 30.06 847 25.01 21.3 70.3 22 -1.4 29.5
14:35 1018 30.06 847 25.01 21.2 70.2 22 -1 30.2
14:40 1018 30.06 847 25.01 21.3 70.4 21 -1.5 29.3
14:45 1018 30.06 847 25.01 21 69.9 23 -0.7 30.8
14:50 1018 30.06 847 25.01 20.9 69.5 23 -0.9 30.4
14:55 1018 30.06 847 25.01 21.2 70.1 21 -1.6 29.2
15:00 1018 30.06 847 25.01 21.8 71.3 20 -1.6 29.1
15:05 1018 30.06 847 25.01 21.5 70.7 21 -1.4 29.5
15:10 1018 30.06 847 25.01 21.7 71 20 -1.9 28.6
15:15 1017 30.03 847 25.01 22 71.5 21 -1 30.3
15:20 1017 30.03 847 25.01 22.2 72 20 -1.4 29.6
15:25 1017 30.03 847 25.01 22 71.6 21 -1.4 29.5
15:30 1017 30.03 847 25.01 21.6 70.9 21 -1.5 29.2
15:35 1017 30.03 847 25.01 21.9 71.4 21 -1.5 29.3
15:40 1017 30.03 846 24.98 22 71.6 21 -1.4 29.5
15:45 1017 30.03 846 24.98 21.3 70.4 21 -1.8 28.7
15:50 1017 30.03 846 24.98 21.1 70 20 -2.5 27.4
15:55 1017 30.03 846 24.98 20.7 69.2 18 -4.2 24.5
16:00 1017 30.03 846 24.98 21.2 70.1 20 -2.5 27.5
16:05 1017 30.03 846 24.98 21.7 71.1 18 -3.5 25.7
16:10 1017 30.03 846 24.98 21.6 71 18 -3.7 25.3
16:15 1017 30.03 846 24.98 21.1 70 20 -2.5 27.5
16:20 1017 30.03 846 24.98 20.7 69.3 20 -2.9 26.9
16:25 1017 30.03 846 24.98 21.2 70.2 18 -3.7 25.4
16:30 1017 30.03 846 24.98 21.4 70.6 18 -3.7 25.4
16:35 1017 30.03 846 24.98 21.1 70.1 19 -3 26.7
16:40 1017 30.03 846 24.98 21.5 70.7 19 -3.1 26.5
16:45 1016 30 846 24.98 20.8 69.4 19 -3.5 25.7
16:50 1016 30 846 24.98 20.1 68.2 20 -3.2 26.2
16:55 1016 30 846 24.98 20.3 68.5 19 -4.1 24.6
17:00 1016 30 846 24.98 20.7 69.3 19 -3.5 25.6
17:05 1016 30 846 24.98 20.2 68.3 21 -2.9 26.9
17:10 1016 30 846 24.98 20.2 68.4 19 -4.2 24.5
17:15 1016 30 845 24.95 19.6 67.3 19 -4.4 24
17:20 1016 30 845 24.95 19.6 67.3 19 -4.5 23.9
17:25 1016 30 845 24.95 19.5 67 20 -3.8 25.1
17:30 1016 30 845 24.95 19.6 67.2 20 -3.9 25.1
17:35 1016 30 845 24.95 19.5 67.1 20 -4.2 24.5
17:40 1016 30 845 24.95 19.6 67.4 20 -3.9 25
17:45 1016 30 845 24.95 19.7 67.5 19 -4.1 24.6
17:50 1016 30 845 24.95 19.6 67.3 20 -3.5 25.6
17:55 1016 30 845 24.95 19.3 66.8 24 -1.4 29.5
18:00 1016 30 845 24.95 19.1 66.3 26 -0.8 30.6
18:05 1016 30 845 24.95 19 66.1 25 -1.6 29.2
18:10 1016 30 845 24.95 18.8 65.9 24 -2.1 28.2
18:15 1016 30 845 24.95 18.6 65.4 25 -1.8 28.8
18:20 1016 30 845 24.95 18.4 65 26 -1.5 29.2
18:25 1016 30 845 24.95 18.2 64.8 26 -1.3 29.7
18:30 1016 30 845 24.95 18.1 64.5 28 -0.8 30.6
18:35 1016 30 845 24.95 17.8 64.1 29 -0.3 31.4
18:40 1016 30 845 24.95 17.7 63.8 32 0.9 33.7
18:45 1016 30 845 24.95 17.2 62.9 34 1.3 34.3
18:50 1016 30 845 24.95 16.7 62.1 36 1.7 35
18:55 1016 30 845 24.95 16.4 61.6 37 1.9 35.4
19:00 1016 30 845 24.95 16.2 61.2 38 1.9 35.5
19:05 1016 30 845 24.95 16 60.8 40 2.4 36.3
19:10 1016 30 845 24.95 16 60.7 40 2.5 36.4
19:15 1016 30 845 24.95 15.6 60.1 41 2.4 36.4
19:20 1016 30 845 24.95 15.3 59.6 40 1.7 35.1
19:25 1016 30 845 24.95 15.2 59.4 41 2.3 36.2
19:30 1016 30 845 24.95 14.8 58.6 46 3.3 38
19:35 1016 30 845 24.95 14.2 57.6 46 2.9 37.3
19:40 1016 30 845 24.95 14 57.2 47 3 37.4
19:45 1016 30 845 24.95 13.8 56.9 47 2.7 36.8
19:50 1016 30 845 24.95 13.6 56.4 49 3.1 37.5
19:55 1016 30 845 24.95 13.1 55.7 51 3.3 37.9
20:00 1016 30 845 24.95 12.7 54.9 51 3 37.4
20:05 1016 30 845 24.95 12.7 54.9 47 1.7 35.1
20:10 1016 30 845 24.95 13.2 55.7 43 0.8 33.5
20:15 1016 30 845 24.95 13.6 56.5 42 0.9 33.6
20:20 1016 30 845 24.95 13.4 56.1 43 1.2 34.1
20:25 1016 30 845 24.95 13.2 55.7 43 1 33.7
20:30 1016 30 845 24.95 13 55.4 44 1 33.8
20:35 1016 30 845 24.95 12.9 55.3 42 0.5 32.9
20:40 1016 30 845 24.95 13.2 55.7 41 0.3 32.5
20:45 1016 30 845 24.95 13.2 55.8 43 0.9 33.6
20:50 1016 30 845 24.95 13.1 55.5 42 0.6 33
20:55 1016 30 845 24.95 12.9 55.2 42 0.3 32.5
21:00 1016 30 845 24.95 13 55.4 42 0.3 32.5
21:05 1016 30 845 24.95 13 55.5 41 0.3 32.5
21:10 1016 30 845 24.95 13.1 55.6 40 -0 31.9
21:15 1016 30 845 24.95 13.1 55.5 42 0.4 32.7
21:20 1016 30 845 24.95 12.9 55.3 41 -0.1 31.8
21:25 1016 30 845 24.95 13 55.4 42 0.5 32.9
21:30 1016 30 845 24.95 12.8 55 42 0.3 32.5
21:35 1016 30 845 24.95 12.6 54.7 43 0.3 32.6
21:40 1016 30 845 24.95 12.5 54.4 42 0.1 32.2
21:45 1016 30 845 24.95 12.4 54.4 43 0.2 32.4
21:50 1016 30 845 24.95 12.4 54.3 42 0 32.1
21:55 1016 30 845 24.95 12.4 54.3 43 0.3 32.5
22:00 1016 30 845 24.95 12.4 54.3 43 0.1 32.2
22:05 1016 30 845 24.95 12.5 54.4 43 0.1 32.2
22:10 1016 30 845 24.95 12.4 54.3 43 0.2 32.4
22:15 1015 29.97 845 24.95 12.4 54.3 43 0.2 32.3
22:20 1015 29.97 845 24.95 12.4 54.3 43 0.2 32.3
22:25 1015 29.97 845 24.95 12.3 54.2 43 0.1 32.1
22:30 1015 29.97 845 24.95 12.3 54.2 43 0.1 32.3
22:35 1015 29.97 845 24.95 12.1 53.9 44 0.2 32.4
22:40 1015 29.97 844 24.92 12 53.6 44 0.2 32.4
22:45 1015 29.97 844 24.92 12 53.6 45 0.4 32.7
22:50 1015 29.97 844 24.92 11.9 53.5 45 0.3 32.6
22:55 1015 29.97 844 24.92 11.8 53.3 45 0.4 32.7
23:00 1015 29.97 844 24.92 11.7 53.1 45 0.4 32.7
23:05 1015 29.97 844 24.92 11.5 52.7 47 0.8 33.4
23:10 1015 29.97 844 24.92 11.2 52.2 48 0.6 33.1
23:15 1015 29.97 844 24.92 11.1 52 48 0.5 32.9
23:20 1015 29.97 844 24.92 11 51.9 48 0.6 33.1
23:25 1015 29.97 844 24.92 11 51.8 49 0.7 33.2
23:30 1015 29.97 844 24.92 11 51.8 48 0.4 32.8
23:35 1015 29.97 844 24.92 11.1 52 47 0.2 32.4
23:40 1015 29.97 844 24.92 11.2 52.1 47 0.4 32.7
23:45 1015 29.97 844 24.92 11.3 52.3 46 0.2 32.4
23:50 1015 29.97 844 24.92 11.5 52.7 45 -0 31.9
23:55 1015 29.97 844 24.92 11.8 53.2 45 0.2 32.3
24:00 1015 29.97 844 24.92 11.6 52.8 46 0.4 32.8